Wrights Shop, Virginia
Current Conditions -  °F | °C
As of 6:54 PM on Thursday 27 Nov 2014 (Local Time) from KLYH Reporting Station
Overcast Overcast  
Wind Chill: 29°   Ceiling: 4600
Heat Index: 36°   Visibility: 10mi
Dew Point: 21°   Wind: 9mph
Humidity: 55%   Direction: 310°NW
Pressure: 30.19"   Gusts: 17mph
Location:  37.4692°N, 79.0906°W
Report Text: KLYH 272354Z 31008G15KT 10SM OVC046 02/M06 A3019 RMK AO2 SLP228 T00221061 10083 20022 51030 $
Loading
Personal Weather Stations






























Interactive Weather Map New forecast layout! Learn more

10-Day Weather Forecast

Advertisements
Track Severe Weather on mobile